Terminal Aerodrome Forecast
Issued by NWS

Home | Current Version | Previous Version | Text Only | Print | Product List | Glossary Off
Versions: 1 2 3 4 5 6 7 8 9 10 11 12 13 14 15 16

000
FTUS43 KICT 101700
TAFRSL
TAF
KRSL 101720Z 1018/1118 15018G27KT P6SM SKC
     FM110200 16012KT P6SM SKC
     FM111500 20017G25KT P6SM SKC=

USA.gov is the U.S. government's official web portal to all federal, state and local government web resources and services.